PWSweather.com
Personal Weather Stations
Station Observations
KNCCHINA3
Red Tractor Trail, China Grove, NC 28023

Red Tractor TrailChina Grove, NC 28023

Lat: 35.59751, Lon: -80.60201

Elevation: 800

Station Type: Oregon Scientific WMR 968

http://www.joesweathergarage.com

High Low Average
Temperature 79.0°F26.1°C 35.5°F1.9°C 57.6°F14.2°C
Dew Point 45.1°F7.3°C 3.1°F-16.1°C 35.3°F1.8°C
Winds 9.6 mph 15.4 kmh Calm Calm 3.0 mph S4.8 kmh S
Wind Gusts 16.2 mph26.1 kmh -- 5.0 mph8.0 kmh
Humidity 98% 6% 54%
Pressure 30.36 in1028.1 mb 30.18 in1022.0 mb -
Precipitation 0.00 in0.0 mm - -
Hour Temp Dew Point Humidity Winds Wind Gusts Pressure Precip Precip Rate Daily Precip Total
12:03 AM 44.1°F6.7°C 36.7°F2.6°C 75% 1.9 mph NNE3.1 kmh NNE 5.4 mph8.7 kmh 30.21 in1023.0 mb 0.00 in0.0 mm 0.00 in0.0 mm 0.00 in0.0 mm
12:08 AM 44.1°F6.7°C 37.3°F2.9°C 77% 3.3 mph NNE5.3 kmh NNE 4.4 mph7.1 kmh 30.21 in1023.0 mb 0.00 in0.0 mm 0.00 in0.0 mm 0.00 in0.0 mm
12:13 AM 43.6°F6.4°C 38.1°F3.4°C 81% 2.4 mph NNE3.9 kmh NNE 5.0 mph8.0 kmh 30.21 in1023.0 mb 0.00 in0.0 mm 0.00 in0.0 mm 0.00 in0.0 mm
12:18 AM 43.4°F6.3°C 37.6°F3.1°C 80% Calm Calm 5.0 mph8.0 kmh 30.21 in1023.0 mb 0.00 in0.0 mm 0.00 in0.0 mm 0.00 in0.0 mm
12:23 AM 42.9°F6.1°C 37.1°F2.8°C 80% 2.3 mph NNE3.7 kmh NNE 2.6 mph4.2 kmh 30.21 in1023.0 mb 0.00 in0.0 mm 0.00 in0.0 mm 0.00 in0.0 mm
12:28 AM 42.7°F5.9°C 36.6°F2.6°C 79% Calm Calm 2.6 mph4.2 kmh 30.21 in1023.0 mb 0.00 in0.0 mm 0.00 in0.0 mm 0.00 in0.0 mm
12:34 AM 42.5°F5.8°C 36.4°F2.4°C 79% Calm Calm -- 30.21 in1023.0 mb 0.00 in0.0 mm 0.00 in0.0 mm 0.00 in0.0 mm
12:39 AM 42.9°F6.1°C 37.4°F3.0°C 81% 3.4 mph NNE5.5 kmh NNE 4.0 mph6.4 kmh 30.21 in1023.0 mb 0.00 in0.0 mm 0.00 in0.0 mm 0.00 in0.0 mm
12:44 AM 42.9°F6.1°C 38.6°F3.7°C 85% Calm Calm 4.0 mph6.4 kmh 30.21 in1023.0 mb 0.00 in0.0 mm 0.00 in0.0 mm 0.00 in0.0 mm
12:49 AM 42.5°F5.8°C 37.3°F2.9°C 82% Calm Calm 3.2 mph5.1 kmh 30.21 in1023.0 mb 0.00 in0.0 mm 0.00 in0.0 mm 0.00 in0.0 mm
12:54 AM 42.3°F5.7°C 36.5°F2.5°C 80% 3.8 mph NNE6.1 kmh NNE 5.0 mph8.0 kmh 30.24 in1024.0 mb 0.00 in0.0 mm 0.00 in0.0 mm 0.00 in0.0 mm
12:59 AM 42.3°F5.7°C 37.1°F2.8°C 82% Calm Calm 5.0 mph8.0 kmh 30.24 in1024.0 mb 0.00 in0.0 mm 0.00 in0.0 mm 0.00 in0.0 mm
01:04 AM 42.3°F5.7°C 36.5°F2.5°C 80% Calm Calm 2.6 mph4.2 kmh 30.24 in1024.0 mb 0.00 in0.0 mm 0.00 in0.0 mm 0.00 in0.0 mm
01:09 AM 42.2°F5.7°C 37.0°F2.8°C 82% Calm Calm -- 30.21 in1023.0 mb 0.00 in0.0 mm 0.00 in0.0 mm 0.00 in0.0 mm
01:15 AM 41.6°F5.3°C 36.5°F2.5°C 82% Calm Calm -- 30.21 in1023.0 mb 0.00 in0.0 mm 0.00 in0.0 mm 0.00 in0.0 mm
01:20 AM 41.1°F5.1°C 35.7°F2.1°C 81% Calm Calm -- 30.24 in1024.0 mb 0.00 in0.0 mm 0.00 in0.0 mm 0.00 in0.0 mm
01:25 AM 41.1°F5.1°C 36.0°F2.2°C 82% Calm Calm -- 30.24 in1024.0 mb 0.00 in0.0 mm 0.00 in0.0 mm 0.00 in0.0 mm
01:30 AM 40.9°F4.9°C 35.8°F2.1°C 82% Calm Calm -- 30.24 in1024.0 mb 0.00 in0.0 mm 0.00 in0.0 mm 0.00 in0.0 mm
01:35 AM 40.7°F4.8°C 36.2°F2.3°C 84% Calm Calm -- 30.24 in1024.0 mb 0.00 in0.0 mm 0.00 in0.0 mm 0.00 in0.0 mm
01:40 AM 40.4°F4.7°C 35.9°F2.2°C 84% Calm Calm -- 30.24 in1024.0 mb 0.00 in0.0 mm 0.00 in0.0 mm 0.00 in0.0 mm
01:45 AM 40.2°F4.6°C 35.4°F1.9°C 83% Calm Calm -- 30.24 in1024.0 mb 0.00 in0.0 mm 0.00 in0.0 mm 0.00 in0.0 mm
01:50 AM 40.2°F4.6°C 35.4°F1.9°C 83% 2.3 mph SSW3.7 kmh SSW 2.6 mph4.2 kmh 30.21 in1023.0 mb 0.00 in0.0 mm 0.00 in0.0 mm 0.00 in0.0 mm
01:55 AM 40.2°F4.6°C 35.7°F2.1°C 84% Calm Calm 2.6 mph4.2 kmh 30.21 in1023.0 mb 0.00 in0.0 mm 0.00 in0.0 mm 0.00 in0.0 mm
02:00 AM 40.0°F4.4°C 35.8°F2.1°C 85% Calm Calm -- 30.21 in1023.0 mb 0.00 in0.0 mm 0.00 in0.0 mm 0.00 in0.0 mm
02:05 AM 40.0°F4.4°C 36.1°F2.3°C 86% Calm Calm -- 30.21 in1023.0 mb 0.00 in0.0 mm 0.00 in0.0 mm 0.00 in0.0 mm
02:10 AM 39.8°F4.3°C 35.9°F2.2°C 86% Calm Calm -- 30.21 in1023.0 mb 0.00 in0.0 mm 0.00 in0.0 mm 0.00 in0.0 mm
02:15 AM 39.8°F4.3°C 36.2°F2.3°C 87% Calm Calm -- 30.21 in1023.0 mb 0.00 in0.0 mm 0.00 in0.0 mm 0.00 in0.0 mm
02:20 AM 39.6°F4.2°C 35.7°F2.1°C 86% Calm Calm -- 30.21 in1023.0 mb 0.00 in0.0 mm 0.00 in0.0 mm 0.00 in0.0 mm
02:25 AM 39.6°F4.2°C 35.4°F1.9°C 85% Calm Calm -- 30.21 in1023.0 mb 0.00 in0.0 mm 0.00 in0.0 mm 0.00 in0.0 mm
02:30 AM 39.6°F4.2°C 36.0°F2.2°C 87% Calm Calm -- 30.21 in1023.0 mb 0.00 in0.0 mm 0.00 in0.0 mm 0.00 in0.0 mm
02:35 AM 39.5°F4.2°C 36.1°F2.3°C 88% Calm Calm -- 30.21 in1023.0 mb 0.00 in0.0 mm 0.00 in0.0 mm 0.00 in0.0 mm
02:40 AM 39.5°F4.2°C 36.4°F2.4°C 89% Calm Calm -- 30.21 in1023.0 mb 0.00 in0.0 mm 0.00 in0.0 mm 0.00 in0.0 mm
02:45 AM 39.1°F3.9°C 35.7°F2.1°C 88% Calm Calm -- 30.21 in1023.0 mb 0.00 in0.0 mm 0.00 in0.0 mm 0.00 in0.0 mm
02:50 AM 38.7°F3.7°C 35.4°F1.9°C 88% Calm Calm -- 30.21 in1023.0 mb 0.00 in0.0 mm 0.00 in0.0 mm 0.00 in0.0 mm
02:55 AM 38.9°F3.8°C 36.1°F2.3°C 90% Calm Calm -- 30.21 in1023.0 mb 0.00 in0.0 mm 0.00 in0.0 mm 0.00 in0.0 mm
03:00 AM 38.7°F3.7°C 35.6°F2.0°C 89% Calm Calm -- 30.21 in1023.0 mb 0.00 in0.0 mm 0.00 in0.0 mm 0.00 in0.0 mm
03:05 AM 38.7°F3.7°C 35.6°F2.0°C 89% Calm Calm -- 30.24 in1024.0 mb 0.00 in0.0 mm 0.00 in0.0 mm 0.00 in0.0 mm
03:10 AM 38.6°F3.7°C 35.3°F1.8°C 88% Calm Calm -- 30.24 in1024.0 mb 0.00 in0.0 mm 0.00 in0.0 mm 0.00 in0.0 mm
03:15 AM 38.4°F3.6°C 35.1°F1.7°C 88% Calm Calm -- 30.24 in1024.0 mb 0.00 in0.0 mm 0.00 in0.0 mm 0.00 in0.0 mm
03:20 AM 38.4°F3.6°C 35.6°F2.0°C 90% Calm Calm -- 30.24 in1024.0 mb 0.00 in0.0 mm 0.00 in0.0 mm 0.00 in0.0 mm
03:25 AM 38.2°F3.4°C 34.9°F1.6°C 88% Calm Calm -- 30.24 in1024.0 mb 0.00 in0.0 mm 0.00 in0.0 mm 0.00 in0.0 mm
03:30 AM 38.2°F3.4°C 35.1°F1.7°C 89% Calm Calm -- 30.24 in1024.0 mb 0.00 in0.0 mm 0.00 in0.0 mm 0.00 in0.0 mm
03:36 AM 38.2°F3.4°C 35.1°F1.7°C 89% Calm Calm -- 30.24 in1024.0 mb 0.00 in0.0 mm 0.00 in0.0 mm 0.00 in0.0 mm
03:41 AM 38.2°F3.4°C 35.4°F1.9°C 90% 2.0 mph SSW3.2 kmh SSW 3.2 mph5.1 kmh 30.24 in1024.0 mb 0.00 in0.0 mm 0.00 in0.0 mm 0.00 in0.0 mm
03:46 AM 38.2°F3.4°C 36.2°F2.3°C 93% Calm Calm 3.2 mph5.1 kmh 30.24 in1024.0 mb 0.00 in0.0 mm 0.00 in0.0 mm 0.00 in0.0 mm
03:51 AM 38.0°F3.3°C 35.8°F2.1°C 92% Calm Calm -- 30.24 in1024.0 mb 0.00 in0.0 mm 0.00 in0.0 mm 0.00 in0.0 mm
03:56 AM 37.8°F3.2°C 35.3°F1.8°C 91% Calm Calm -- 30.24 in1024.0 mb 0.00 in0.0 mm 0.00 in0.0 mm 0.00 in0.0 mm
04:01 AM 37.5°F3.1°C 35.0°F1.7°C 91% Calm Calm -- 30.24 in1024.0 mb 0.00 in0.0 mm 0.00 in0.0 mm 0.00 in0.0 mm
04:07 AM 37.5°F3.1°C 35.0°F1.7°C 91% Calm Calm -- 30.24 in1024.0 mb 0.00 in0.0 mm 0.00 in0.0 mm 0.00 in0.0 mm
04:12 AM 37.3°F2.9°C 34.5°F1.4°C 90% Calm Calm -- 30.24 in1024.0 mb 0.00 in0.0 mm 0.00 in0.0 mm 0.00 in0.0 mm
04:17 AM 37.3°F2.9°C 34.3°F1.3°C 89% Calm Calm -- 30.24 in1024.0 mb 0.00 in0.0 mm 0.00 in0.0 mm 0.00 in0.0 mm
04:22 AM 37.5°F3.1°C 35.3°F1.8°C 92% Calm Calm -- 30.24 in1024.0 mb 0.00 in0.0 mm 0.00 in0.0 mm 0.00 in0.0 mm
04:27 AM 37.3°F2.9°C 35.4°F1.9°C 93% Calm Calm -- 30.24 in1024.0 mb 0.00 in0.0 mm 0.00 in0.0 mm 0.00 in0.0 mm
04:32 AM 36.9°F2.7°C 34.7°F1.5°C 92% Calm Calm -- 30.24 in1024.0 mb 0.00 in0.0 mm 0.00 in0.0 mm 0.00 in0.0 mm
04:38 AM 36.8°F2.7°C 34.9°F1.6°C 93% Calm Calm -- 30.24 in1024.0 mb 0.00 in0.0 mm 0.00 in0.0 mm 0.00 in0.0 mm
04:43 AM 36.8°F2.7°C 35.1°F1.7°C 94% Calm Calm -- 30.24 in1024.0 mb 0.00 in0.0 mm 0.00 in0.0 mm 0.00 in0.0 mm
04:48 AM 36.8°F2.7°C 35.1°F1.7°C 94% Calm Calm -- 30.24 in1024.0 mb 0.00 in0.0 mm 0.00 in0.0 mm 0.00 in0.0 mm
04:53 AM 36.8°F2.7°C 34.9°F1.6°C 93% Calm Calm -- 30.24 in1024.0 mb 0.00 in0.0 mm 0.00 in0.0 mm 0.00 in0.0 mm
04:59 AM 36.6°F2.6°C 34.9°F1.6°C 94% Calm Calm -- 30.24 in1024.0 mb 0.00 in0.0 mm 0.00 in0.0 mm 0.00 in0.0 mm
05:04 AM 36.4°F2.4°C 34.7°F1.5°C 94% Calm Calm -- 30.24 in1024.0 mb 0.00 in0.0 mm 0.00 in0.0 mm 0.00 in0.0 mm
05:09 AM 36.0°F2.2°C 34.3°F1.3°C 94% Calm Calm -- 30.24 in1024.0 mb 0.00 in0.0 mm 0.00 in0.0 mm 0.00 in0.0 mm
05:14 AM 36.0°F2.2°C 34.3°F1.3°C 94% Calm Calm -- 30.24 in1024.0 mb 0.00 in0.0 mm 0.00 in0.0 mm 0.00 in0.0 mm
05:20 AM 35.9°F2.2°C 34.2°F1.2°C 94% Calm Calm -- 30.24 in1024.0 mb 0.00 in0.0 mm 0.00 in0.0 mm 0.00 in0.0 mm
05:25 AM 35.7°F2.1°C 34.0°F1.1°C 94% Calm Calm -- 30.24 in1024.0 mb 0.00 in0.0 mm 0.00 in0.0 mm 0.00 in0.0 mm
05:30 AM 35.7°F2.1°C 34.0°F1.1°C 94% Calm Calm -- 30.24 in1024.0 mb 0.00 in0.0 mm 0.00 in0.0 mm 0.00 in0.0 mm
05:35 AM 35.7°F2.1°C 34.0°F1.1°C 94% Calm Calm -- 30.24 in1024.0 mb 0.00 in0.0 mm 0.00 in0.0 mm 0.00 in0.0 mm
05:40 AM 35.9°F2.2°C 34.2°F1.2°C 94% Calm Calm -- 30.24 in1024.0 mb 0.00 in0.0 mm 0.00 in0.0 mm 0.00 in0.0 mm
05:45 AM 36.0°F2.2°C 34.6°F1.4°C 95% Calm Calm -- 30.24 in1024.0 mb 0.00 in0.0 mm 0.00 in0.0 mm 0.00 in0.0 mm
05:50 AM 36.0°F2.2°C 34.9°F1.6°C 96% Calm Calm -- 30.24 in1024.0 mb 0.00 in0.0 mm 0.00 in0.0 mm 0.00 in0.0 mm
05:55 AM 35.9°F2.2°C 35.0°F1.7°C 97% Calm Calm -- 30.24 in1024.0 mb 0.00 in0.0 mm 0.00 in0.0 mm 0.00 in0.0 mm
06:00 AM 35.7°F2.1°C 34.6°F1.4°C 96% Calm Calm -- 30.24 in1024.0 mb 0.00 in0.0 mm 0.00 in0.0 mm 0.00 in0.0 mm
06:05 AM 35.7°F2.1°C 34.3°F1.3°C 95% Calm Calm -- 30.27 in1025.1 mb 0.00 in0.0 mm 0.00 in0.0 mm 0.00 in0.0 mm
06:10 AM 35.5°F1.9°C 34.1°F1.2°C 95% Calm Calm -- 30.27 in1025.1 mb 0.00 in0.0 mm 0.00 in0.0 mm 0.00 in0.0 mm
06:15 AM 35.5°F1.9°C 34.1°F1.2°C 95% Calm Calm -- 30.27 in1025.1 mb 0.00 in0.0 mm 0.00 in0.0 mm 0.00 in0.0 mm
06:20 AM 35.5°F1.9°C 34.4°F1.3°C 96% Calm Calm -- 30.27 in1025.1 mb 0.00 in0.0 mm 0.00 in0.0 mm 0.00 in0.0 mm
06:25 AM 35.7°F2.1°C 34.8°F1.6°C 97% Calm Calm -- 30.27 in1025.1 mb 0.00 in0.0 mm 0.00 in0.0 mm 0.00 in0.0 mm
06:31 AM 35.7°F2.1°C 34.6°F1.4°C 96% Calm Calm -- 30.27 in1025.1 mb 0.00 in0.0 mm 0.00 in0.0 mm 0.00 in0.0 mm
06:36 AM 35.5°F1.9°C 34.4°F1.3°C 96% Calm Calm -- 30.27 in1025.1 mb 0.00 in0.0 mm 0.00 in0.0 mm 0.00 in0.0 mm
06:41 AM 35.5°F1.9°C 34.4°F1.3°C 96% Calm Calm -- 30.27 in1025.1 mb 0.00 in0.0 mm 0.00 in0.0 mm 0.00 in0.0 mm
06:46 AM 35.5°F1.9°C 34.6°F1.4°C 97% Calm Calm -- 30.27 in1025.1 mb 0.00 in0.0 mm 0.00 in0.0 mm 0.00 in0.0 mm
06:51 AM 35.5°F1.9°C 34.4°F1.3°C 96% Calm Calm -- 30.27 in1025.1 mb 0.00 in0.0 mm 0.00 in0.0 mm 0.00 in0.0 mm
06:56 AM 35.7°F2.1°C 34.6°F1.4°C 96% Calm Calm -- 30.27 in1025.1 mb 0.00 in0.0 mm 0.00 in0.0 mm 0.00 in0.0 mm
07:01 AM 36.0°F2.2°C 35.1°F1.7°C 97% Calm Calm -- 30.27 in1025.1 mb 0.00 in0.0 mm 0.00 in0.0 mm 0.00 in0.0 mm
07:06 AM 36.4°F2.4°C 35.5°F1.9°C 97% Calm Calm -- 30.27 in1025.1 mb 0.00 in0.0 mm 0.00 in0.0 mm 0.00 in0.0 mm
07:11 AM 36.6°F2.6°C 36.0°F2.2°C 98% Calm Calm -- 30.27 in1025.1 mb 0.00 in0.0 mm 0.00 in0.0 mm 0.00 in0.0 mm
07:16 AM 36.9°F2.7°C 36.3°F2.4°C 98% Calm Calm -- 30.27 in1025.1 mb 0.00 in0.0 mm 0.00 in0.0 mm 0.00 in0.0 mm
07:21 AM 37.3°F2.9°C 36.7°F2.6°C 98% Calm Calm -- 30.30 in1026.1 mb 0.00 in0.0 mm 0.00 in0.0 mm 0.00 in0.0 mm
07:26 AM 37.7°F3.2°C 36.6°F2.6°C 96% Calm Calm -- 30.30 in1026.1 mb 0.00 in0.0 mm 0.00 in0.0 mm 0.00 in0.0 mm
07:32 AM 38.2°F3.4°C 37.1°F2.8°C 96% Calm Calm -- 30.30 in1026.1 mb 0.00 in0.0 mm 0.00 in0.0 mm 0.00 in0.0 mm
07:37 AM 38.7°F3.7°C 37.6°F3.1°C 96% Calm Calm -- 30.30 in1026.1 mb 0.00 in0.0 mm 0.00 in0.0 mm 0.00 in0.0 mm
07:42 AM 39.1°F3.9°C 38.0°F3.3°C 96% Calm Calm -- 30.30 in1026.1 mb 0.00 in0.0 mm 0.00 in0.0 mm 0.00 in0.0 mm
07:47 AM 39.8°F4.3°C 38.6°F3.7°C 96% Calm Calm -- 30.30 in1026.1 mb 0.00 in0.0 mm 0.00 in0.0 mm 0.00 in0.0 mm
07:54 AM 40.5°F4.7°C 39.1°F3.9°C 95% Calm Calm -- 30.30 in1026.1 mb 0.00 in0.0 mm 0.00 in0.0 mm 0.00 in0.0 mm
07:59 AM 41.3°F5.2°C 39.9°F4.4°C 95% Calm Calm -- 30.30 in1026.1 mb 0.00 in0.0 mm 0.00 in0.0 mm 0.00 in0.0 mm
08:06 AM 42.3°F5.7°C 40.9°F4.9°C 95% Calm Calm -- 30.33 in1027.1 mb 0.00 in0.0 mm 0.00 in0.0 mm 0.00 in0.0 mm
08:11 AM 42.9°F6.1°C 41.2°F5.1°C 94% Calm Calm -- 30.33 in1027.1 mb 0.00 in0.0 mm 0.00 in0.0 mm 0.00 in0.0 mm
08:16 AM 43.8°F6.6°C 42.1°F5.6°C 94% Calm Calm -- 30.33 in1027.1 mb 0.00 in0.0 mm 0.00 in0.0 mm 0.00 in0.0 mm
08:21 AM 44.7°F7.1°C 43.0°F6.1°C 94% Calm Calm -- 30.33 in1027.1 mb 0.00 in0.0 mm 0.00 in0.0 mm 0.00 in0.0 mm
08:26 AM 45.6°F7.6°C 43.6°F6.4°C 93% Calm Calm -- 30.33 in1027.1 mb 0.00 in0.0 mm 0.00 in0.0 mm 0.00 in0.0 mm
08:31 AM 46.7°F8.2°C 44.1°F6.7°C 91% Calm Calm -- 30.33 in1027.1 mb 0.00 in0.0 mm 0.00 in0.0 mm 0.00 in0.0 mm
08:36 AM 47.7°F8.7°C 44.5°F6.9°C 89% Calm Calm -- 30.33 in1027.1 mb 0.00 in0.0 mm 0.00 in0.0 mm 0.00 in0.0 mm
08:41 AM 48.6°F9.2°C 44.5°F6.9°C 86% Calm Calm -- 30.33 in1027.1 mb 0.00 in0.0 mm 0.00 in0.0 mm 0.00 in0.0 mm
08:46 AM 50.1°F10.1°C 45.1°F7.3°C 83% 3.8 mph NE6.1 kmh NE 7.2 mph11.6 kmh 30.33 in1027.1 mb 0.00 in0.0 mm 0.00 in0.0 mm 0.00 in0.0 mm
08:51 AM 51.7°F10.9°C 42.6°F5.9°C 71% 5.2 mph NE8.4 kmh NE 8.6 mph13.8 kmh 30.36 in1028.1 mb 0.00 in0.0 mm 0.00 in0.0 mm 0.00 in0.0 mm
08:57 AM 52.8°F11.6°C 40.2°F4.6°C 62% 6.5 mph ENE10.5 kmh ENE 8.6 mph13.8 kmh 30.36 in1028.1 mb 0.00 in0.0 mm 0.00 in0.0 mm 0.00 in0.0 mm
09:02 AM 53.7°F12.1°C 38.3°F3.5°C 56% 7.0 mph NE11.3 kmh NE 8.6 mph13.8 kmh 30.36 in1028.1 mb 0.00 in0.0 mm 0.00 in0.0 mm 0.00 in0.0 mm
09:07 AM 54.2°F12.3°C 37.4°F3.0°C 53% 6.6 mph NE10.6 kmh NE 12.0 mph19.3 kmh 30.36 in1028.1 mb 0.00 in0.0 mm 0.00 in0.0 mm 0.00 in0.0 mm
09:12 AM 54.9°F12.7°C 36.5°F2.5°C 50% 6.4 mph NE10.3 kmh NE 12.0 mph19.3 kmh 30.36 in1028.1 mb 0.00 in0.0 mm 0.00 in0.0 mm 0.00 in0.0 mm
09:17 AM 55.7°F13.2°C 37.2°F2.9°C 50% 6.7 mph NE10.8 kmh NE 8.6 mph13.8 kmh 30.36 in1028.1 mb 0.00 in0.0 mm 0.00 in0.0 mm 0.00 in0.0 mm
09:22 AM 56.0°F13.3°C 37.0°F2.8°C 49% 6.2 mph NE10.0 kmh NE 11.2 mph18.0 kmh 30.33 in1027.1 mb 0.00 in0.0 mm 0.00 in0.0 mm 0.00 in0.0 mm
09:27 AM 56.7°F13.7°C 37.6°F3.1°C 49% 5.7 mph NE9.2 kmh NE 11.2 mph18.0 kmh 30.33 in1027.1 mb 0.00 in0.0 mm 0.00 in0.0 mm 0.00 in0.0 mm
09:32 AM 57.6°F14.2°C 37.9°F3.3°C 48% 5.0 mph NE8.0 kmh NE 8.6 mph13.8 kmh 30.33 in1027.1 mb 0.00 in0.0 mm 0.00 in0.0 mm 0.00 in0.0 mm
09:37 AM 58.7°F14.8°C 37.8°F3.2°C 46% 5.5 mph NNE8.9 kmh NNE 9.8 mph15.8 kmh 30.30 in1026.1 mb 0.00 in0.0 mm 0.00 in0.0 mm 0.00 in0.0 mm
09:42 AM 60.2°F15.7°C 38.7°F3.7°C 45% 6.0 mph ENE9.7 kmh ENE 10.8 mph17.4 kmh 30.30 in1026.1 mb 0.00 in0.0 mm 0.00 in0.0 mm 0.00 in0.0 mm
09:48 AM 61.1°F16.2°C 38.3°F3.5°C 43% 6.8 mph NNE10.9 kmh NNE 10.8 mph17.4 kmh 30.30 in1026.1 mb 0.00 in0.0 mm 0.00 in0.0 mm 0.00 in0.0 mm
09:53 AM 62.4°F16.9°C 39.5°F4.2°C 43% 5.1 mph NE8.2 kmh NE 12.0 mph19.3 kmh 30.33 in1027.1 mb 0.00 in0.0 mm 0.00 in0.0 mm 0.00 in0.0 mm
09:58 AM 63.5°F17.5°C 39.2°F4.0°C 41% 6.5 mph ENE10.5 kmh ENE 12.0 mph19.3 kmh 30.33 in1027.1 mb 0.00 in0.0 mm 0.00 in0.0 mm 0.00 in0.0 mm
10:03 AM 64.7°F18.2°C 40.3°F4.6°C 41% 5.7 mph NE9.2 kmh NE 11.2 mph18.0 kmh 30.33 in1027.1 mb 0.00 in0.0 mm 0.00 in0.0 mm 0.00 in0.0 mm
10:09 AM 65.6°F18.7°C 40.4°F4.7°C 40% 5.0 mph N8.0 kmh N 8.6 mph13.8 kmh 30.33 in1027.1 mb 0.00 in0.0 mm 0.00 in0.0 mm 0.00 in0.0 mm
10:14 AM 65.3°F18.5°C 39.5°F4.2°C 39% 4.3 mph NNW6.9 kmh NNW 8.0 mph12.9 kmh 30.33 in1027.1 mb 0.00 in0.0 mm 0.00 in0.0 mm 0.00 in0.0 mm
10:19 AM 66.0°F18.9°C 39.5°F4.2°C 38% 5.1 mph NE8.2 kmh NE 8.0 mph12.9 kmh 30.30 in1026.1 mb 0.00 in0.0 mm 0.00 in0.0 mm 0.00 in0.0 mm
10:24 AM 66.2°F19.0°C 37.5°F3.1°C 35% 9.6 mph NE15.4 kmh NE 16.2 mph26.1 kmh 30.30 in1026.1 mb 0.00 in0.0 mm 0.00 in0.0 mm 0.00 in0.0 mm
10:30 AM 66.4°F19.1°C 36.9°F2.7°C 34% 7.6 mph ENE12.2 kmh ENE 16.2 mph26.1 kmh 30.30 in1026.1 mb 0.00 in0.0 mm 0.00 in0.0 mm 0.00 in0.0 mm
10:35 AM 66.7°F19.3°C 37.9°F3.3°C 35% 8.0 mph NNE12.9 kmh NNE 13.0 mph20.9 kmh 30.33 in1027.1 mb 0.00 in0.0 mm 0.00 in0.0 mm 0.00 in0.0 mm
10:40 AM 68.9°F20.5°C 40.6°F4.8°C 36% 3.7 mph ENE6.0 kmh ENE 12.6 mph20.3 kmh 30.33 in1027.1 mb 0.00 in0.0 mm 0.00 in0.0 mm 0.00 in0.0 mm
10:45 AM 68.0°F20.0°C 38.3°F3.5°C 34% 5.0 mph NW8.0 kmh NW 8.6 mph13.8 kmh 30.33 in1027.1 mb 0.00 in0.0 mm 0.00 in0.0 mm 0.00 in0.0 mm
10:51 AM 67.3°F19.6°C 38.5°F3.6°C 35% 3.5 mph WSW5.6 kmh WSW 6.8 mph10.9 kmh 30.33 in1027.1 mb 0.00 in0.0 mm 0.00 in0.0 mm 0.00 in0.0 mm
10:56 AM 67.8°F19.9°C 38.2°F3.4°C 34% 4.4 mph SW7.1 kmh SW 6.8 mph10.9 kmh 30.33 in1027.1 mb 0.00 in0.0 mm 0.00 in0.0 mm 0.00 in0.0 mm
11:01 AM 68.3°F20.2°C 38.6°F3.7°C 34% 7.4 mph NNE11.9 kmh NNE 9.4 mph15.1 kmh 30.33 in1027.1 mb 0.00 in0.0 mm 0.00 in0.0 mm 0.00 in0.0 mm
11:06 AM 68.3°F20.2°C 37.8°F3.2°C 33% 6.2 mph WSW10.0 kmh WSW 9.4 mph15.1 kmh 30.33 in1027.1 mb 0.00 in0.0 mm 0.00 in0.0 mm 0.00 in0.0 mm
11:12 AM 69.6°F20.9°C 39.0°F3.9°C 33% 5.4 mph NE8.7 kmh NE 8.0 mph12.9 kmh 30.33 in1027.1 mb 0.00 in0.0 mm 0.00 in0.0 mm 0.00 in0.0 mm
11:17 AM 71.4°F21.9°C 40.6°F4.8°C 33% 3.8 mph S6.1 kmh S 8.0 mph12.9 kmh 30.33 in1027.1 mb 0.00 in0.0 mm 0.00 in0.0 mm 0.00 in0.0 mm
11:22 AM 71.0°F21.7°C 39.4°F4.1°C 32% 7.0 mph NNE11.3 kmh NNE 12.0 mph19.3 kmh 30.33 in1027.1 mb 0.00 in0.0 mm 0.00 in0.0 mm 0.00 in0.0 mm
11:27 AM 71.0°F21.7°C 39.4°F4.1°C 32% 3.5 mph NE5.6 kmh NE 12.0 mph19.3 kmh 30.33 in1027.1 mb 0.00 in0.0 mm 0.00 in0.0 mm 0.00 in0.0 mm
11:32 AM 71.2°F21.8°C 39.6°F4.2°C 32% 4.0 mph NE6.4 kmh NE 7.6 mph12.2 kmh 30.33 in1027.1 mb 0.00 in0.0 mm 0.00 in0.0 mm 0.00 in0.0 mm
11:37 AM 72.1°F22.3°C 40.4°F4.7°C 32% 5.1 mph E8.2 kmh E 9.8 mph15.8 kmh 30.36 in1028.1 mb 0.00 in0.0 mm 0.00 in0.0 mm 0.00 in0.0 mm
11:43 AM 71.8°F22.1°C 40.1°F4.5°C 32% 4.1 mph E6.6 kmh E 9.8 mph15.8 kmh 30.36 in1028.1 mb 0.00 in0.0 mm 0.00 in0.0 mm 0.00 in0.0 mm
11:48 AM 72.5°F22.5°C 40.7°F4.8°C 32% 8.7 mph NE14.0 kmh NE 11.6 mph18.7 kmh 30.36 in1028.1 mb 0.00 in0.0 mm 0.00 in0.0 mm 0.00 in0.0 mm
11:53 AM 73.6°F23.1°C 40.9°F4.9°C 31% 4.6 mph ESE7.4 kmh ESE 11.6 mph18.7 kmh 30.36 in1028.1 mb 0.00 in0.0 mm 0.00 in0.0 mm 0.00 in0.0 mm
11:58 AM 74.6°F23.7°C 41.7°F5.4°C 31% 3.1 mph E5.0 kmh E 7.6 mph12.2 kmh 30.36 in1028.1 mb 0.00 in0.0 mm 0.00 in0.0 mm 0.00 in0.0 mm
12:03 PM 72.1°F22.3°C 39.6°F4.2°C 31% 3.6 mph N5.8 kmh N 7.6 mph12.2 kmh 30.36 in1028.1 mb 0.00 in0.0 mm 0.00 in0.0 mm 0.00 in0.0 mm
12:08 PM 72.1°F22.3°C 39.6°F4.2°C 31% 5.8 mph NNE9.3 kmh NNE 8.6 mph13.8 kmh 30.33 in1027.1 mb 0.00 in0.0 mm 0.00 in0.0 mm 0.00 in0.0 mm
12:17 PM 71.6°F22.0°C 39.1°F3.9°C 31% 5.1 mph SW8.2 kmh SW 7.6 mph12.2 kmh 30.33 in1027.1 mb 0.00 in0.0 mm 0.00 in0.0 mm 0.00 in0.0 mm
12:22 PM 72.8°F22.7°C 40.2°F4.6°C 31% 3.2 mph N5.1 kmh N 7.6 mph12.2 kmh 30.30 in1026.1 mb 0.00 in0.0 mm 0.00 in0.0 mm 0.00 in0.0 mm
12:28 PM 73.0°F22.8°C 39.5°F4.2°C 30% 3.7 mph W6.0 kmh W 9.4 mph15.1 kmh 30.30 in1026.1 mb 0.00 in0.0 mm 0.00 in0.0 mm 0.00 in0.0 mm
12:33 PM 70.7°F21.5°C 36.7°F2.6°C 29% 4.5 mph NW7.2 kmh NW 9.4 mph15.1 kmh 30.30 in1026.1 mb 0.00 in0.0 mm 0.00 in0.0 mm 0.00 in0.0 mm
12:38 PM 70.0°F21.1°C 35.2°F1.8°C 28% 6.0 mph NW9.7 kmh NW 9.8 mph15.8 kmh 30.30 in1026.1 mb 0.00 in0.0 mm 0.00 in0.0 mm 0.00 in0.0 mm
12:43 PM 72.5°F22.5°C 39.9°F4.4°C 31% 4.3 mph NNW6.9 kmh NNW 9.8 mph15.8 kmh 30.30 in1026.1 mb 0.00 in0.0 mm 0.00 in0.0 mm 0.00 in0.0 mm
12:48 PM 74.5°F23.6°C 39.0°F3.9°C 28% 3.4 mph SE5.5 kmh SE 6.2 mph10.0 kmh 30.30 in1026.1 mb 0.00 in0.0 mm 0.00 in0.0 mm 0.00 in0.0 mm
12:53 PM 74.8°F23.8°C 39.3°F4.1°C 28% 5.5 mph WSW8.9 kmh WSW 7.6 mph12.2 kmh 30.30 in1026.1 mb 0.00 in0.0 mm 0.00 in0.0 mm 0.00 in0.0 mm
12:58 PM 73.7°F23.2°C 39.2°F4.0°C 29% 5.1 mph W8.2 kmh W 7.6 mph12.2 kmh 30.30 in1026.1 mb 0.00 in0.0 mm 0.00 in0.0 mm 0.00 in0.0 mm
01:03 PM 74.6°F23.7°C 38.2°F3.4°C 27% 6.1 mph N9.8 kmh N 12.0 mph19.3 kmh 30.30 in1026.1 mb 0.00 in0.0 mm 0.00 in0.0 mm 0.00 in0.0 mm
01:09 PM 73.6°F23.1°C 36.4°F2.4°C 26% 4.2 mph WSW6.8 kmh WSW 12.0 mph19.3 kmh 30.27 in1025.1 mb 0.00 in0.0 mm 0.00 in0.0 mm 0.00 in0.0 mm
01:14 PM 75.4°F24.1°C 38.9°F3.8°C 27% 4.5 mph WNW7.2 kmh WNW 8.6 mph13.8 kmh 30.27 in1025.1 mb 0.00 in0.0 mm 0.00 in0.0 mm 0.00 in0.0 mm
01:19 PM 75.2°F24.0°C 35.8°F2.1°C 24% 6.2 mph WSW10.0 kmh WSW 11.2 mph18.0 kmh 30.27 in1025.1 mb 0.00 in0.0 mm 0.00 in0.0 mm 0.00 in0.0 mm
01:24 PM 73.7°F23.2°C 35.5°F1.9°C 25% 4.5 mph NW7.2 kmh NW 11.2 mph18.0 kmh 30.27 in1025.1 mb 0.00 in0.0 mm 0.00 in0.0 mm 0.00 in0.0 mm
01:30 PM 76.3°F24.6°C 36.7°F2.6°C 24% 3.0 mph SSW4.8 kmh SSW 8.0 mph12.9 kmh 30.27 in1025.1 mb 0.00 in0.0 mm 0.00 in0.0 mm 0.00 in0.0 mm
01:36 PM 76.6°F24.8°C 38.0°F3.3°C 25% 3.9 mph NW6.3 kmh NW 7.2 mph11.6 kmh 30.24 in1024.0 mb 0.00 in0.0 mm 0.00 in0.0 mm 0.00 in0.0 mm
01:41 PM 77.3°F25.2°C 37.5°F3.1°C 24% 4.3 mph SSW6.9 kmh SSW 7.2 mph11.6 kmh 30.24 in1024.0 mb 0.00 in0.0 mm 0.00 in0.0 mm 0.00 in0.0 mm
01:46 PM 75.5°F24.2°C 35.0°F1.7°C 23% 5.1 mph NW8.2 kmh NW 7.6 mph12.2 kmh 30.24 in1024.0 mb 0.00 in0.0 mm 0.00 in0.0 mm 0.00 in0.0 mm
01:51 PM 75.5°F24.2°C 36.0°F2.2°C 24% 3.7 mph S6.0 kmh S 7.6 mph12.2 kmh 30.27 in1025.1 mb 0.00 in0.0 mm 0.00 in0.0 mm 0.00 in0.0 mm
01:56 PM 75.0°F23.9°C 34.5°F1.4°C 23% 4.3 mph SW6.9 kmh SW 10.8 mph17.4 kmh 30.27 in1025.1 mb 0.00 in0.0 mm 0.00 in0.0 mm 0.00 in0.0 mm
02:02 PM 76.6°F24.8°C 37.0°F2.8°C 24% 3.2 mph NNE5.1 kmh NNE 10.8 mph17.4 kmh 30.27 in1025.1 mb 0.00 in0.0 mm 0.00 in0.0 mm 0.00 in0.0 mm
02:07 PM 75.5°F24.2°C 35.0°F1.7°C 23% 4.9 mph NW7.9 kmh NW 7.2 mph11.6 kmh 30.27 in1025.1 mb 0.00 in0.0 mm 0.00 in0.0 mm 0.00 in0.0 mm
02:12 PM 75.0°F23.9°C 34.5°F1.4°C 23% 4.6 mph WNW7.4 kmh WNW 7.2 mph11.6 kmh 30.27 in1025.1 mb 0.00 in0.0 mm 0.00 in0.0 mm 0.00 in0.0 mm
02:17 PM 75.5°F24.2°C 36.0°F2.2°C 24% 5.3 mph SW8.5 kmh SW 8.6 mph13.8 kmh 30.27 in1025.1 mb 0.00 in0.0 mm 0.00 in0.0 mm 0.00 in0.0 mm
02:22 PM 76.4°F24.7°C 36.8°F2.7°C 24% 3.4 mph SSW5.5 kmh SSW 9.4 mph15.1 kmh 30.27 in1025.1 mb 0.00 in0.0 mm 0.00 in0.0 mm 0.00 in0.0 mm
02:27 PM 76.1°F24.5°C 37.6°F3.1°C 25% 7.2 mph S11.6 kmh S 9.4 mph15.1 kmh 30.27 in1025.1 mb 0.00 in0.0 mm 0.00 in0.0 mm 0.00 in0.0 mm
02:32 PM 77.3°F25.2°C 36.5°F2.5°C 23% 6.8 mph N10.9 kmh N 9.4 mph15.1 kmh 30.27 in1025.1 mb 0.00 in0.0 mm 0.00 in0.0 mm 0.00 in0.0 mm
02:37 PM 77.9°F25.5°C 35.9°F2.2°C 22% 4.8 mph NE7.7 kmh NE 9.8 mph15.8 kmh 30.27 in1025.1 mb 0.00 in0.0 mm 0.00 in0.0 mm 0.00 in0.0 mm
02:42 PM 79.0°F26.1°C 36.8°F2.7°C 22% 4.8 mph ESE7.7 kmh ESE 9.8 mph15.8 kmh 30.27 in1025.1 mb 0.00 in0.0 mm 0.00 in0.0 mm 0.00 in0.0 mm
02:47 PM 77.0°F25.0°C 34.0°F1.1°C 21% 4.5 mph WNW7.2 kmh WNW 8.0 mph12.9 kmh 30.27 in1025.1 mb 0.00 in0.0 mm 0.00 in0.0 mm 0.00 in0.0 mm
02:52 PM 76.6°F24.8°C 34.8°F1.6°C 22% 4.9 mph W7.9 kmh W 8.0 mph12.9 kmh 30.24 in1024.0 mb 0.00 in0.0 mm 0.00 in0.0 mm 0.00 in0.0 mm
02:57 PM 77.3°F25.2°C 35.4°F1.9°C 22% 4.3 mph SW6.9 kmh SW 6.8 mph10.9 kmh 30.24 in1024.0 mb 0.00 in0.0 mm 0.00 in0.0 mm 0.00 in0.0 mm
03:03 PM 75.5°F24.2°C 33.9°F1.1°C 22% 4.4 mph SW7.1 kmh SW 6.8 mph10.9 kmh 30.24 in1024.0 mb 0.00 in0.0 mm 0.00 in0.0 mm 0.00 in0.0 mm
03:08 PM 76.4°F24.7°C 34.6°F1.4°C 22% 5.7 mph WSW9.2 kmh WSW 7.2 mph11.6 kmh 30.24 in1024.0 mb 0.00 in0.0 mm 0.00 in0.0 mm 0.00 in0.0 mm
03:13 PM 76.8°F24.9°C 33.8°F1.0°C 21% 3.9 mph NNW6.3 kmh NNW 7.2 mph11.6 kmh 30.24 in1024.0 mb 0.00 in0.0 mm 0.00 in0.0 mm 0.00 in0.0 mm
03:18 PM 77.2°F25.1°C 34.1°F1.2°C 21% 4.1 mph NW6.6 kmh NW 6.8 mph10.9 kmh 30.24 in1024.0 mb 0.00 in0.0 mm 0.00 in0.0 mm 0.00 in0.0 mm
03:23 PM 79.0°F26.1°C 35.6°F2.0°C 21% 3.7 mph SW6.0 kmh SW 6.8 mph10.9 kmh 30.24 in1024.0 mb 0.00 in0.0 mm 0.00 in0.0 mm 0.00 in0.0 mm
03:28 PM 78.8°F26.0°C 34.2°F1.2°C 20% 4.7 mph SSW7.6 kmh SSW 7.6 mph12.2 kmh 30.24 in1024.0 mb 0.00 in0.0 mm 0.00 in0.0 mm 0.00 in0.0 mm
03:34 PM 78.1°F25.6°C 31.1°F-0.5°C 18% 3.6 mph SW5.8 kmh SW 7.6 mph12.2 kmh 30.21 in1023.0 mb 0.00 in0.0 mm 0.00 in0.0 mm 0.00 in0.0 mm
03:39 PM 78.2°F25.7°C 16.8°F-8.4°C 10% 3.6 mph WSW5.8 kmh WSW 10.8 mph17.4 kmh 30.21 in1023.0 mb 0.00 in0.0 mm 0.00 in0.0 mm 0.00 in0.0 mm
03:44 PM 77.5°F25.3°C 16.3°F-8.7°C 10% 4.0 mph W6.4 kmh W 10.8 mph17.4 kmh 30.21 in1023.0 mb 0.00 in0.0 mm 0.00 in0.0 mm 0.00 in0.0 mm
03:49 PM 77.5°F25.3°C 33.2°F0.7°C 20% 4.5 mph NNW7.2 kmh NNW 7.6 mph12.2 kmh 30.21 in1023.0 mb 0.00 in0.0 mm 0.00 in0.0 mm 0.00 in0.0 mm
03:54 PM 76.3°F24.6°C 21.6°F-5.8°C 13% 6.5 mph WSW10.5 kmh WSW 10.8 mph17.4 kmh 30.21 in1023.0 mb 0.00 in0.0 mm 0.00 in0.0 mm 0.00 in0.0 mm
03:59 PM 76.8°F24.9°C 25.5°F-3.6°C 15% 4.0 mph WSW6.4 kmh WSW 10.8 mph17.4 kmh 30.21 in1023.0 mb 0.00 in0.0 mm 0.00 in0.0 mm 0.00 in0.0 mm
04:04 PM 79.0°F26.1°C 30.4°F-0.9°C 17% 3.1 mph SE5.0 kmh SE 7.6 mph12.2 kmh 30.18 in1022.0 mb 0.00 in0.0 mm 0.00 in0.0 mm 0.00 in0.0 mm
04:09 PM 77.2°F25.1°C 16.0°F-8.9°C 10% 4.4 mph WNW7.1 kmh WNW 7.6 mph12.2 kmh 30.18 in1022.0 mb 0.00 in0.0 mm 0.00 in0.0 mm 0.00 in0.0 mm
04:15 PM 78.2°F25.7°C 26.6°F-3.0°C 15% 3.3 mph S5.3 kmh S 6.8 mph10.9 kmh 30.18 in1022.0 mb 0.00 in0.0 mm 0.00 in0.0 mm 0.00 in0.0 mm
04:20 PM 77.5°F25.3°C 33.2°F0.7°C 20% 5.1 mph WSW8.2 kmh WSW 8.0 mph12.9 kmh 30.21 in1023.0 mb 0.00 in0.0 mm 0.00 in0.0 mm 0.00 in0.0 mm
04:25 PM 74.8°F23.8°C 3.1°F-16.1°C 6% 4.9 mph W7.9 kmh W 8.0 mph12.9 kmh 30.21 in1023.0 mb 0.00 in0.0 mm 0.00 in0.0 mm 0.00 in0.0 mm
04:30 PM 76.8°F24.9°C 32.6°F0.3°C 20% 2.6 mph ESE4.2 kmh ESE 7.2 mph11.6 kmh 30.21 in1023.0 mb 0.00 in0.0 mm 0.00 in0.0 mm 0.00 in0.0 mm
04:35 PM 77.7°F25.4°C 26.2°F-3.2°C 15% 4.2 mph S6.8 kmh S 6.2 mph10.0 kmh 30.21 in1023.0 mb 0.00 in0.0 mm 0.00 in0.0 mm 0.00 in0.0 mm
04:40 PM 77.5°F25.3°C 26.1°F-3.3°C 15% 3.6 mph SW5.8 kmh SW 6.2 mph10.0 kmh 30.21 in1023.0 mb 0.00 in0.0 mm 0.00 in0.0 mm 0.00 in0.0 mm
04:45 PM 77.9°F25.5°C 33.5°F0.8°C 20% 4.1 mph SW6.6 kmh SW 6.8 mph10.9 kmh 30.21 in1023.0 mb 0.00 in0.0 mm 0.00 in0.0 mm 0.00 in0.0 mm
04:50 PM 76.6°F24.8°C 29.8°F-1.2°C 18% 3.8 mph SE6.1 kmh SE 6.8 mph10.9 kmh 30.21 in1023.0 mb 0.00 in0.0 mm 0.00 in0.0 mm 0.00 in0.0 mm
04:55 PM 74.6°F23.7°C 25.3°F-3.7°C 16% 3.4 mph W5.5 kmh W 6.8 mph10.9 kmh 30.21 in1023.0 mb 0.00 in0.0 mm 0.00 in0.0 mm 0.00 in0.0 mm
05:00 PM 74.8°F23.8°C 32.1°F0.1°C 21% 3.2 mph S5.1 kmh S 6.8 mph10.9 kmh 30.21 in1023.0 mb 0.00 in0.0 mm 0.00 in0.0 mm 0.00 in0.0 mm
05:05 PM 73.7°F23.2°C 31.2°F-0.4°C 21% 3.4 mph NW5.5 kmh NW 7.6 mph12.2 kmh 30.21 in1023.0 mb 0.00 in0.0 mm 0.00 in0.0 mm 0.00 in0.0 mm
05:10 PM 73.6°F23.1°C 31.1°F-0.5°C 21% 3.4 mph S5.5 kmh S 6.2 mph10.0 kmh 30.21 in1023.0 mb 0.00 in0.0 mm 0.00 in0.0 mm 0.00 in0.0 mm
05:17 PM 73.2°F22.9°C 30.8°F-0.7°C 21% 4.2 mph WNW6.8 kmh WNW 6.2 mph10.0 kmh 30.21 in1023.0 mb 0.00 in0.0 mm 0.00 in0.0 mm 0.00 in0.0 mm
05:22 PM 73.0°F22.8°C 31.8°F-0.1°C 22% 3.3 mph S5.3 kmh S 6.8 mph10.9 kmh 30.21 in1023.0 mb 0.00 in0.0 mm 0.00 in0.0 mm 0.00 in0.0 mm
05:29 PM 72.8°F22.7°C 31.6°F-0.2°C 22% 3.1 mph SE5.0 kmh SE 7.6 mph12.2 kmh 30.21 in1023.0 mb 0.00 in0.0 mm 0.00 in0.0 mm 0.00 in0.0 mm
05:34 PM 72.8°F22.7°C 31.6°F-0.2°C 22% 4.1 mph SSE6.6 kmh SSE 7.6 mph12.2 kmh 30.21 in1023.0 mb 0.00 in0.0 mm 0.00 in0.0 mm 0.00 in0.0 mm
05:39 PM 72.7°F22.6°C 32.6°F0.3°C 23% 3.9 mph SSE6.3 kmh SSE 6.2 mph10.0 kmh 30.21 in1023.0 mb 0.00 in0.0 mm 0.00 in0.0 mm 0.00 in0.0 mm
05:44 PM 72.5°F22.5°C 32.5°F0.3°C 23% 4.1 mph S6.6 kmh S 6.2 mph10.0 kmh 30.21 in1023.0 mb 0.00 in0.0 mm 0.00 in0.0 mm 0.00 in0.0 mm
05:49 PM 72.1°F22.3°C 32.1°F0.1°C 23% 3.8 mph S6.1 kmh S 6.8 mph10.9 kmh 30.21 in1023.0 mb 0.00 in0.0 mm 0.00 in0.0 mm 0.00 in0.0 mm
05:54 PM 72.1°F22.3°C 32.1°F0.1°C 23% 2.5 mph SSE4.0 kmh SSE 7.6 mph12.2 kmh 30.21 in1023.0 mb 0.00 in0.0 mm 0.00 in0.0 mm 0.00 in0.0 mm
05:59 PM 71.9°F22.2°C 31.9°F-0.1°C 23% 2.9 mph S4.7 kmh S 7.6 mph12.2 kmh 30.21 in1023.0 mb 0.00 in0.0 mm 0.00 in0.0 mm 0.00 in0.0 mm
06:04 PM 71.9°F22.2°C 31.9°F-0.1°C 23% 3.1 mph S5.0 kmh S 5.8 mph9.3 kmh 30.18 in1022.0 mb 0.00 in0.0 mm 0.00 in0.0 mm 0.00 in0.0 mm
06:10 PM 71.6°F22.0°C 31.7°F-0.2°C 23% 2.5 mph SE4.0 kmh SE 6.2 mph10.0 kmh 30.18 in1022.0 mb 0.00 in0.0 mm 0.00 in0.0 mm 0.00 in0.0 mm
06:15 PM 71.4°F21.9°C 32.6°F0.3°C 24% 3.1 mph S5.0 kmh S 6.2 mph10.0 kmh 30.18 in1022.0 mb 0.00 in0.0 mm 0.00 in0.0 mm 0.00 in0.0 mm
06:20 PM 71.2°F21.8°C 32.4°F0.2°C 24% 3.6 mph S5.8 kmh S 4.4 mph7.1 kmh 30.18 in1022.0 mb 0.00 in0.0 mm 0.00 in0.0 mm 0.00 in0.0 mm
06:26 PM 71.2°F21.8°C 33.4°F0.8°C 25% 4.0 mph W6.4 kmh W 6.2 mph10.0 kmh 30.18 in1022.0 mb 0.00 in0.0 mm 0.00 in0.0 mm 0.00 in0.0 mm
06:31 PM 71.2°F21.8°C 33.4°F0.8°C 25% 2.7 mph SSE4.3 kmh SSE 6.2 mph10.0 kmh 30.18 in1022.0 mb 0.00 in0.0 mm 0.00 in0.0 mm 0.00 in0.0 mm
06:36 PM 70.9°F21.6°C 32.1°F0.1°C 24% 2.5 mph SSE4.0 kmh SSE 5.4 mph8.7 kmh 30.18 in1022.0 mb 0.00 in0.0 mm 0.00 in0.0 mm 0.00 in0.0 mm
06:45 PM 70.3°F21.3°C 31.6°F-0.2°C 24% 2.6 mph SSE4.2 kmh SSE 4.4 mph7.1 kmh 30.18 in1022.0 mb 0.00 in0.0 mm 0.00 in0.0 mm 0.00 in0.0 mm
06:50 PM 70.0°F21.1°C 32.4°F0.2°C 25% 2.9 mph SSE4.7 kmh SSE 4.0 mph6.4 kmh 30.18 in1022.0 mb 0.00 in0.0 mm 0.00 in0.0 mm 0.00 in0.0 mm
06:57 PM 69.6°F20.9°C 32.0°F0.0°C 25% 2.5 mph ESE4.0 kmh ESE 5.0 mph8.0 kmh 30.18 in1022.0 mb 0.00 in0.0 mm 0.00 in0.0 mm 0.00 in0.0 mm
07:02 PM 69.1°F20.6°C 31.6°F-0.2°C 25% 2.8 mph SE4.5 kmh SE 5.0 mph8.0 kmh 30.18 in1022.0 mb 0.00 in0.0 mm 0.00 in0.0 mm 0.00 in0.0 mm
07:07 PM 68.7°F20.4°C 32.2°F0.1°C 26% 2.2 mph SE3.5 kmh SE 3.2 mph5.1 kmh 30.18 in1022.0 mb 0.00 in0.0 mm 0.00 in0.0 mm 0.00 in0.0 mm
07:12 PM 68.3°F20.2°C 31.9°F-0.1°C 26% Calm Calm 2.6 mph4.2 kmh 30.18 in1022.0 mb 0.00 in0.0 mm 0.00 in0.0 mm 0.00 in0.0 mm
07:17 PM 68.2°F20.1°C 31.8°F-0.1°C 26% Calm Calm 2.2 mph3.5 kmh 30.18 in1022.0 mb 0.00 in0.0 mm 0.00 in0.0 mm 0.00 in0.0 mm
07:22 PM 67.8°F19.9°C 32.4°F0.2°C 27% Calm Calm -- 30.18 in1022.0 mb 0.00 in0.0 mm 0.00 in0.0 mm 0.00 in0.0 mm
07:27 PM 67.3°F19.6°C 32.9°F0.5°C 28% Calm Calm -- 30.18 in1022.0 mb 0.00 in0.0 mm 0.00 in0.0 mm 0.00 in0.0 mm
07:32 PM 66.9°F19.4°C 32.5°F0.3°C 28% Calm Calm -- 30.18 in1022.0 mb 0.00 in0.0 mm 0.00 in0.0 mm 0.00 in0.0 mm
07:38 PM 66.4°F19.1°C 32.9°F0.5°C 29% Calm Calm -- 30.18 in1022.0 mb 0.00 in0.0 mm 0.00 in0.0 mm 0.00 in0.0 mm
07:43 PM 66.0°F18.9°C 33.4°F0.8°C 30% Calm Calm -- 30.18 in1022.0 mb 0.00 in0.0 mm 0.00 in0.0 mm 0.00 in0.0 mm
07:48 PM 65.5°F18.6°C 33.8°F1.0°C 31% Calm Calm -- 30.18 in1022.0 mb 0.00 in0.0 mm 0.00 in0.0 mm 0.00 in0.0 mm
07:53 PM 64.7°F18.2°C 34.7°F1.5°C 33% Calm Calm -- 30.18 in1022.0 mb 0.00 in0.0 mm 0.00 in0.0 mm 0.00 in0.0 mm
07:58 PM 64.2°F17.9°C 34.3°F1.3°C 33% Calm Calm -- 30.18 in1022.0 mb 0.00 in0.0 mm 0.00 in0.0 mm 0.00 in0.0 mm
08:03 PM 63.7°F17.6°C 34.6°F1.4°C 34% Calm Calm -- 30.18 in1022.0 mb 0.00 in0.0 mm 0.00 in0.0 mm 0.00 in0.0 mm
08:08 PM 62.9°F17.2°C 34.6°F1.4°C 35% Calm Calm -- 30.18 in1022.0 mb 0.00 in0.0 mm 0.00 in0.0 mm 0.00 in0.0 mm
08:13 PM 62.2°F16.8°C 35.4°F1.9°C 37% Calm Calm -- 30.18 in1022.0 mb 0.00 in0.0 mm 0.00 in0.0 mm 0.00 in0.0 mm
08:19 PM 61.3°F16.3°C 35.3°F1.8°C 38% Calm Calm -- 30.18 in1022.0 mb 0.00 in0.0 mm 0.00 in0.0 mm 0.00 in0.0 mm
08:24 PM 60.6°F15.9°C 36.0°F2.2°C 40% Calm Calm -- 30.18 in1022.0 mb 0.00 in0.0 mm 0.00 in0.0 mm 0.00 in0.0 mm
08:30 PM 59.9°F15.5°C 36.6°F2.6°C 42% Calm Calm -- 30.18 in1022.0 mb 0.00 in0.0 mm 0.00 in0.0 mm 0.00 in0.0 mm
08:35 PM 59.4°F15.2°C 36.7°F2.6°C 43% Calm Calm -- 30.18 in1022.0 mb 0.00 in0.0 mm 0.00 in0.0 mm 0.00 in0.0 mm
08:40 PM 59.1°F15.1°C 36.4°F2.4°C 43% Calm Calm -- 30.18 in1022.0 mb 0.00 in0.0 mm 0.00 in0.0 mm 0.00 in0.0 mm
08:45 PM 58.5°F14.7°C 37.6°F3.1°C 46% 1.8 mph SE2.9 kmh SE 2.2 mph3.5 kmh 30.18 in1022.0 mb 0.00 in0.0 mm 0.00 in0.0 mm 0.00 in0.0 mm
08:51 PM 58.0°F14.4°C 37.7°F3.2°C 47% Calm Calm 2.2 mph3.5 kmh 30.18 in1022.0 mb 0.00 in0.0 mm 0.00 in0.0 mm 0.00 in0.0 mm
08:56 PM 57.6°F14.2°C 37.4°F3.0°C 47% Calm Calm -- 30.18 in1022.0 mb 0.00 in0.0 mm 0.00 in0.0 mm 0.00 in0.0 mm
09:02 PM 57.1°F13.9°C 37.4°F3.0°C 48% Calm Calm -- 30.18 in1022.0 mb 0.00 in0.0 mm 0.00 in0.0 mm 0.00 in0.0 mm
09:07 PM 56.7°F13.7°C 37.6°F3.1°C 49% Calm Calm -- 30.21 in1023.0 mb 0.00 in0.0 mm 0.00 in0.0 mm 0.00 in0.0 mm
09:13 PM 56.6°F13.7°C 38.1°F3.4°C 50% Calm Calm -- 30.21 in1023.0 mb 0.00 in0.0 mm 0.00 in0.0 mm 0.00 in0.0 mm
09:18 PM 56.2°F13.4°C 38.2°F3.4°C 51% Calm Calm -- 30.21 in1023.0 mb 0.00 in0.0 mm 0.00 in0.0 mm 0.00 in0.0 mm
09:23 PM 56.0°F13.3°C 39.0°F3.9°C 53% Calm Calm -- 30.21 in1023.0 mb 0.00 in0.0 mm 0.00 in0.0 mm 0.00 in0.0 mm
09:28 PM 55.8°F13.2°C 38.4°F3.6°C 52% Calm Calm -- 30.21 in1023.0 mb 0.00 in0.0 mm 0.00 in0.0 mm 0.00 in0.0 mm
09:35 PM 55.5°F13.1°C 38.1°F3.4°C 52% Calm Calm -- 30.21 in1023.0 mb 0.00 in0.0 mm 0.00 in0.0 mm 0.00 in0.0 mm
09:40 PM 55.3°F12.9°C 38.9°F3.8°C 54% Calm Calm -- 30.21 in1023.0 mb 0.00 in0.0 mm 0.00 in0.0 mm 0.00 in0.0 mm
09:45 PM 54.9°F12.7°C 39.0°F3.9°C 55% Calm Calm -- 30.21 in1023.0 mb 0.00 in0.0 mm 0.00 in0.0 mm 0.00 in0.0 mm
09:50 PM 54.8°F12.7°C 39.4°F4.1°C 56% Calm Calm -- 30.21 in1023.0 mb 0.00 in0.0 mm 0.00 in0.0 mm 0.00 in0.0 mm
09:55 PM 54.4°F12.4°C 39.0°F3.9°C 56% Calm Calm -- 30.21 in1023.0 mb 0.00 in0.0 mm 0.00 in0.0 mm 0.00 in0.0 mm
10:00 PM 54.0°F12.2°C 38.6°F3.7°C 56% Calm Calm -- 30.21 in1023.0 mb 0.00 in0.0 mm 0.00 in0.0 mm 0.00 in0.0 mm
10:05 PM 53.7°F12.1°C 38.3°F3.5°C 56% Calm Calm -- 30.21 in1023.0 mb 0.00 in0.0 mm 0.00 in0.0 mm 0.00 in0.0 mm
10:10 PM 53.3°F11.8°C 40.2°F4.6°C 61% Calm Calm -- 30.21 in1023.0 mb 0.00 in0.0 mm 0.00 in0.0 mm 0.00 in0.0 mm
10:16 PM 53.0°F11.7°C 40.3°F4.6°C 62% Calm Calm -- 30.21 in1023.0 mb 0.00 in0.0 mm 0.00 in0.0 mm 0.00 in0.0 mm
10:21 PM 52.6°F11.4°C 40.0°F4.4°C 62% Calm Calm -- 30.21 in1023.0 mb 0.00 in0.0 mm 0.00 in0.0 mm 0.00 in0.0 mm
10:28 PM 52.4°F11.3°C 40.2°F4.6°C 63% Calm Calm -- 30.21 in1023.0 mb 0.00 in0.0 mm 0.00 in0.0 mm 0.00 in0.0 mm
10:33 PM 52.2°F11.2°C 40.0°F4.4°C 63% Calm Calm -- 30.21 in1023.0 mb 0.00 in0.0 mm 0.00 in0.0 mm 0.00 in0.0 mm
10:38 PM 51.9°F11.1°C 40.9°F4.9°C 66% Calm Calm -- 30.21 in1023.0 mb 0.00 in0.0 mm 0.00 in0.0 mm 0.00 in0.0 mm
10:43 PM 51.5°F10.8°C 41.3°F5.2°C 68% Calm Calm -- 30.21 in1023.0 mb 0.00 in0.0 mm 0.00 in0.0 mm 0.00 in0.0 mm
10:48 PM 51.5°F10.8°C 40.9°F4.9°C 67% Calm Calm -- 30.21 in1023.0 mb 0.00 in0.0 mm 0.00 in0.0 mm 0.00 in0.0 mm
10:53 PM 51.3°F10.7°C 41.1°F5.1°C 68% Calm Calm -- 30.18 in1022.0 mb 0.00 in0.0 mm 0.00 in0.0 mm 0.00 in0.0 mm
10:58 PM 51.0°F10.6°C 41.9°F5.5°C 71% Calm Calm -- 30.18 in1022.0 mb 0.00 in0.0 mm 0.00 in0.0 mm 0.00 in0.0 mm
11:03 PM 50.8°F10.4°C 42.5°F5.8°C 73% Calm Calm -- 30.18 in1022.0 mb 0.00 in0.0 mm 0.00 in0.0 mm 0.00 in0.0 mm
11:08 PM 50.6°F10.3°C 42.3°F5.7°C 73% Calm Calm -- 30.18 in1022.0 mb 0.00 in0.0 mm 0.00 in0.0 mm 0.00 in0.0 mm
11:13 PM 50.4°F10.2°C 42.4°F5.8°C 74% Calm Calm -- 30.18 in1022.0 mb 0.00 in0.0 mm 0.00 in0.0 mm 0.00 in0.0 mm
11:18 PM 50.1°F10.1°C 42.1°F5.6°C 74% Calm Calm -- 30.18 in1022.0 mb 0.00 in0.0 mm 0.00 in0.0 mm 0.00 in0.0 mm
11:23 PM 50.1°F10.1°C 41.8°F5.4°C 73% Calm Calm -- 30.18 in1022.0 mb 0.00 in0.0 mm 0.00 in0.0 mm 0.00 in0.0 mm
11:29 PM 49.9°F9.9°C 42.3°F5.7°C 75% Calm Calm -- 30.18 in1022.0 mb 0.00 in0.0 mm 0.00 in0.0 mm 0.00 in0.0 mm
11:34 PM 49.7°F9.8°C 42.4°F5.8°C 76% Calm Calm -- 30.21 in1023.0 mb 0.00 in0.0 mm 0.00 in0.0 mm 0.00 in0.0 mm
11:39 PM 49.5°F9.7°C 42.2°F5.7°C 76% Calm Calm -- 30.21 in1023.0 mb 0.00 in0.0 mm 0.00 in0.0 mm 0.00 in0.0 mm
11:44 PM 49.4°F9.7°C 42.1°F5.6°C 76% Calm Calm -- 30.21 in1023.0 mb 0.00 in0.0 mm 0.00 in0.0 mm 0.00 in0.0 mm
11:49 PM 49.0°F9.4°C 41.4°F5.2°C 75% Calm Calm -- 30.21 in1023.0 mb 0.00 in0.0 mm 0.00 in0.0 mm 0.00 in0.0 mm
11:54 PM 49.0°F9.4°C 41.1°F5.1°C 74% Calm Calm -- 30.21 in1023.0 mb 0.00 in0.0 mm 0.00 in0.0 mm 0.00 in0.0 mm
11:59 PM 48.8°F9.3°C 41.5°F5.3°C 76% Calm Calm -- 30.21 in1023.0 mb 0.00 in0.0 mm 0.00 in0.0 mm 0.00 in0.0 mm